Time;durP1;ratioP1;P1;durP2;ratioP2;P2;SDS_P1;SDS_P2;PMS_P1;PMS_P2;Temp;Humidity;BMP_temperature;BMP_pressure;BME280_temperature;BME280_humidity;BME280_pressure;Samples;Min_cycle;Max_cycle;Signal;HPM_P1;HPM_P2
2021/03/01 00:00:24;;;;;;;57.72;34.90;;;19.60;99.90;;;;;;5013570;28;20029;-30
2021/03/01 00:02:50;;;;;;;58.80;36.42;;;19.50;99.90;;;;;;5011963;28;20046;-38
2021/03/01 00:05:16;;;;;;;64.82;35.75;;;19.50;99.90;;;;;;5012213;28;20022;-38
2021/03/01 00:07:43;;;;;;;63.20;37.22;;;19.50;99.90;;;;;;5012162;28;20018;-39
2021/03/01 00:10:10;;;;;;;61.70;38.25;;;19.50;99.90;;;;;;5011993;28;20018;-38
2021/03/01 00:12:36;;;;;;;65.80;41.33;;;19.50;99.90;;;;;;5011914;28;20535;-38
2021/03/01 00:15:04;;;;;;;69.00;42.85;;;19.60;99.90;;;;;;5011919;28;20042;-38
2021/03/01 00:17:30;;;;;;;83.47;52.95;;;19.50;99.90;;;;;;5012350;28;20030;-38
2021/03/01 00:19:55;;;;;;;111.63;78.60;;;19.60;99.90;;;;;;5010969;28;20369;-38
2021/03/01 00:22:21;;;;;;;145.63;103.38;;;19.50;99.90;;;;;;5012048;28;20033;-37
2021/03/01 00:24:47;;;;;;;138.68;101.47;;;19.50;99.90;;;;;;5011971;28;20564;-38
2021/03/01 00:27:13;;;;;;;141.20;102.53;;;19.40;99.90;;;;;;5011879;28;20022;-38
2021/03/01 00:29:39;;;;;;;147.60;106.30;;;19.40;99.90;;;;;;5012005;28;20022;-37
2021/03/01 00:32:05;;;;;;;135.43;96.88;;;19.40;99.90;;;;;;5010885;28;20032;-38
2021/03/01 00:34:31;;;;;;;132.57;96.13;;;19.40;99.90;;;;;;5012439;28;20026;-38
2021/03/01 00:36:56;;;;;;;135.50;96.13;;;19.40;99.90;;;;;;5012095;28;20025;-38
2021/03/01 00:39:23;;;;;;;129.68;89.28;;;19.40;99.90;;;;;;5012265;28;20062;-38
2021/03/01 00:41:49;;;;;;;118.75;82.93;;;19.40;99.90;;;;;;5011994;28;20061;-38
2021/03/01 00:44:15;;;;;;;117.72;82.07;;;19.40;99.90;;;;;;5012165;28;20062;-38
2021/03/01 00:46:41;;;;;;;108.35;77.10;;;19.30;99.90;;;;;;5012300;28;20069;-38
2021/03/01 00:49:06;;;;;;;99.10;66.22;;;19.30;99.90;;;;;;5012291;28;20776;-37
2021/03/01 00:51:32;;;;;;;92.53;60.30;;;19.30;99.90;;;;;;5012279;28;20022;-38
2021/03/01 00:53:58;;;;;;;97.63;62.08;;;19.40;99.90;;;;;;5012862;28;20444;-38
2021/03/01 00:56:24;;;;;;;94.60;60.78;;;19.30;99.90;;;;;;5015832;28;20030;-37
2021/03/01 00:58:50;;;;;;;84.88;57.78;;;19.30;99.90;;;;;;5016547;28;20037;-30
2021/03/01 01:01:16;;;;;;;82.03;56.60;;;19.30;99.90;;;;;;5016716;28;20029;-30
2021/03/01 01:03:42;;;;;;;80.22;55.53;;;19.30;99.90;;;;;;5016946;28;20029;-30
2021/03/01 01:06:07;;;;;;;84.32;48.95;;;19.30;99.90;;;;;;5015605;28;20423;-30
2021/03/01 01:08:33;;;;;;;75.95;48.17;;;19.20;99.90;;;;;;5015740;28;20149;-30
2021/03/01 01:10:59;;;;;;;80.82;51.50;;;19.20;99.90;;;;;;5016735;28;20092;-30
2021/03/01 01:13:25;;;;;;;81.72;45.10;;;19.20;99.90;;;;;;5016686;28;20033;-30
2021/03/01 01:15:52;;;;;;;75.82;47.92;;;19.20;99.90;;;;;;5016652;28;20101;-30
2021/03/01 01:18:18;;;;;;;69.63;45.78;;;19.20;99.90;;;;;;5016739;28;20021;-30
2021/03/01 01:20:44;;;;;;;67.53;44.10;;;19.20;99.90;;;;;;5016824;28;20490;-30
2021/03/01 01:23:10;;;;;;;71.43;43.33;;;19.20;99.90;;;;;;5016373;28;20040;-30
2021/03/01 01:25:36;;;;;;;76.25;43.97;;;19.20;99.90;;;;;;5015779;28;20032;-30
2021/03/01 01:28:01;;;;;;;64.68;41.33;;;19.20;99.90;;;;;;5016558;28;20026;-30
2021/03/01 01:30:28;;;;;;;53.08;35.35;;;19.20;99.90;;;;;;5016500;28;20179;-30
2021/03/01 01:32:54;;;;;;;65.35;37.55;;;19.20;99.90;;;;;;5016630;28;20022;-30
2021/03/01 01:35:20;;;;;;;58.63;38.03;;;19.20;99.90;;;;;;5016360;28;20113;-30
2021/03/01 01:37:47;;;;;;;57.35;36.60;;;19.20;99.90;;;;;;5016186;28;20533;-30
2021/03/01 01:40:18;;;;;;;59.10;36.90;;;19.20;99.90;;;;;;5016364;28;20026;-30
2021/03/01 01:42:44;;;;;;;57.15;33.88;;;19.20;99.90;;;;;;5016140;28;20029;-30
2021/03/01 01:45:13;;;;;;;49.25;30.90;;;19.20;99.90;;;;;;5016120;28;20022;-30
2021/03/01 01:47:40;;;;;;;51.03;29.13;;;19.10;99.90;;;;;;5016391;28;20022;-30
2021/03/01 01:50:08;;;;;;;49.55;27.80;;;19.20;99.90;;;;;;5014826;28;20026;-30
2021/03/01 01:52:34;;;;;;;44.92;27.13;;;19.20;99.90;;;;;;5014644;28;20456;-30
2021/03/01 01:55:02;;;;;;;48.78;26.17;;;19.20;99.90;;;;;;5015942;28;20049;-30
2021/03/01 01:57:28;;;;;;;47.40;27.63;;;19.20;99.90;;;;;;5015807;28;20053;-30
2021/03/01 01:59:54;;;;;;;46.75;26.75;;;19.10;99.90;;;;;;5016214;28;20380;-30
2021/03/01 02:02:20;;;;;;;46.15;26.48;;;19.10;99.90;;;;;;5015793;28;20058;-30
2021/03/01 02:04:52;;;;;;;45.33;25.50;;;19.10;99.90;;;;;;5015841;28;20047;-30
2021/03/01 02:07:36;;;;;;;42.08;24.48;;;19.10;99.90;;;;;;5014569;28;20615;-30
2021/03/01 02:10:07;;;;;;;44.28;25.33;;;19.10;99.90;;;;;;5015821;28;20026;-30
2021/03/01 02:13:09;;;;;;;34.95;20.42;;;19.10;99.90;;;;;;5015752;28;20025;-30
2021/03/01 02:15:56;;;;;;;34.75;21.02;;;19.10;99.90;;;;;;5015610;28;20045;-30
2021/03/01 02:18:22;;;;;;;32.92;21.20;;;19.10;99.90;;;;;;5015660;28;20033;-30
2021/03/01 02:20:49;;;;;;;33.40;19.08;;;19.10;99.90;;;;;;5015795;28;20068;-38
2021/03/01 02:23:16;;;;;;;37.23;20.07;;;19.10;99.90;;;;;;5014710;28;20029;-37
2021/03/01 02:26:02;;;;;;;31.97;18.07;;;19.10;99.90;;;;;;5014734;28;20293;-38
2021/03/01 02:28:37;;;;;;;35.53;18.05;;;19.10;99.90;;;;;;5014325;28;20037;-37
2021/03/01 02:31:06;;;;;;;32.00;17.92;;;19.10;99.90;;;;;;5014321;28;20057;-37
2021/03/01 02:33:37;;;;;;;31.98;16.35;;;19.00;99.90;;;;;;5014763;28;20375;-37
2021/03/01 02:36:13;;;;;;;38.72;17.40;;;19.00;99.90;;;;;;5014447;28;20022;-38
2021/03/01 02:38:41;;;;;;;33.78;15.35;;;19.00;99.90;;;;;;5014467;28;20464;-38
2021/03/01 02:41:07;;;;;;;;;;;19.00;99.90;;;;;;5014756;28;20030;-38
2021/03/01 02:43:35;;;;;;;28.02;14.88;;;19.00;99.90;;;;;;5013155;28;19971;-38
2021/03/01 02:46:03;;;;;;;33.53;15.90;;;19.00;99.90;;;;;;5015662;28;20375;-30
2021/03/01 02:48:31;;;;;;;30.52;14.15;;;19.00;99.90;;;;;;5015207;28;20031;-30
2021/03/01 02:50:58;;;;;;;27.65;13.43;;;19.00;99.90;;;;;;5014915;28;20026;-30
2021/03/01 02:53:28;;;;;;;33.88;14.98;;;19.00;99.90;;;;;;5015001;28;20022;-30
2021/03/01 02:55:55;;;;;;;28.85;14.18;;;19.00;99.90;;;;;;5015246;28;20026;-30
2021/03/01 02:58:24;;;;;;;24.88;13.57;;;19.00;99.90;;;;;;5014897;28;20033;-30
2021/03/01 03:00:51;;;;;;;27.75;13.43;;;19.00;99.90;;;;;;5015442;28;20038;-30
2021/03/01 03:03:17;;;;;;;32.95;13.98;;;19.00;99.90;;;;;;5014466;28;20053;-30
2021/03/01 03:05:46;;;;;;;27.75;13.25;;;19.00;99.90;;;;;;5014694;28;20018;-30
2021/03/01 03:08:13;;;;;;;24.02;13.15;;;19.00;99.90;;;;;;5014243;28;20093;-38
2021/03/01 03:10:40;;;;;;;30.45;12.65;;;19.00;99.90;;;;;;5013494;28;20026;-38
2021/03/01 03:13:08;;;;;;;26.67;12.73;;;18.90;99.90;;;;;;5013295;28;20040;-38
2021/03/01 03:15:34;;;;;;;29.38;12.13;;;18.90;99.90;;;;;;5012271;28;20092;-38
2021/03/01 03:18:03;;;;;;;23.50;11.18;;;18.90;99.90;;;;;;5012801;28;20387;-38
2021/03/01 03:20:30;;;;;;;31.15;13.23;;;18.90;99.90;;;;;;5013284;28;20029;-39
2021/03/01 03:22:56;;;;;;;31.10;12.75;;;18.90;99.90;;;;;;5013180;28;20022;-38
2021/03/01 03:25:22;;;;;;;23.08;10.68;;;18.90;99.90;;;;;;5013125;28;20025;-38
2021/03/01 03:27:47;;;;;;;32.00;11.32;;;18.90;99.90;;;;;;5013181;28;20029;-38
2021/03/01 03:30:17;;;;;;;24.27;11.73;;;18.90;99.90;;;;;;5013196;28;20026;-38
2021/03/01 03:32:44;;;;;;;20.85;11.18;;;18.90;99.90;;;;;;5013511;28;20353;-38
2021/03/01 03:35:11;;;;;;;29.58;10.35;;;18.90;99.90;;;;;;5013357;28;20029;-38
2021/03/01 03:38:03;;;;;;;24.52;10.48;;;18.90;99.90;;;;;;5013191;28;20029;-38
2021/03/01 03:40:29;;;;;;;20.85;9.40;;;18.90;99.90;;;;;;5013134;28;20499;-38
2021/03/01 03:42:57;;;;;;;24.23;9.95;;;18.90;99.90;;;;;;5012869;28;20101;-37
2021/03/01 03:45:24;;;;;;;27.73;10.07;;;18.80;99.90;;;;;;5013120;28;20025;-38
2021/03/01 03:47:52;;;;;;;26.02;9.73;;;18.80;99.90;;;;;;5012549;28;20084;-38
2021/03/01 03:50:22;;;;;;;27.85;9.82;;;18.80;99.90;;;;;;5012762;28;20033;-38
2021/03/01 03:52:53;;;;;;;20.33;10.82;;;18.80;99.90;;;;;;5012912;28;20191;-38
2021/03/01 03:55:20;;;;;;;23.35;9.68;;;18.80;99.90;;;;;;5012753;28;20424;-39
2021/03/01 03:57:53;;;;;;;22.33;8.73;;;18.80;99.90;;;;;;5012986;28;20069;-39
2021/03/01 04:00:21;;;;;;;21.08;8.55;;;18.80;99.90;;;;;;5013069;28;20572;-38
2021/03/01 04:02:47;;;;;;;;;;;18.80;99.90;;;;;;5012837;28;20046;-38
2021/03/01 04:05:14;;;;;;;22.48;8.40;;;18.80;99.90;;;;;;5012630;28;20359;-38
2021/03/01 04:07:44;;;;;;;22.70;8.98;;;18.80;99.90;;;;;;5012711;28;20030;-39
2021/03/01 04:10:10;;;;;;;23.42;8.40;;;18.80;99.90;;;;;;5012470;28;20475;-39
2021/03/01 04:12:39;;;;;;;23.13;9.35;;;18.80;99.90;;;;;;5011317;28;20030;-39
2021/03/01 04:15:10;;;;;;;22.83;8.98;;;18.80;99.90;;;;;;5012317;28;20079;-39
2021/03/01 04:17:38;;;;;;;21.92;8.73;;;18.80;99.90;;;;;;5010925;28;20026;-39
2021/03/01 04:20:07;;;;;;;17.00;7.82;;;18.80;99.90;;;;;;5011029;28;20060;-38
2021/03/01 04:22:34;;;;;;;20.40;8.30;;;18.80;99.90;;;;;;5012562;28;20030;-39
2021/03/01 04:25:02;;;;;;;20.55;8.23;;;18.80;99.90;;;;;;5012277;28;20108;-38
2021/03/01 04:27:29;;;;;;;14.68;7.55;;;18.70;99.90;;;;;;5012532;28;20085;-38
2021/03/01 04:29:56;;;;;;;17.30;6.70;;;18.70;99.90;;;;;;5014688;28;20018;-38
2021/03/01 04:32:23;;;;;;;23.35;7.90;;;18.70;99.90;;;;;;5016388;28;20026;-38
2021/03/01 04:34:50;;;;;;;19.10;7.95;;;18.70;99.90;;;;;;5016257;28;20030;-38
2021/03/01 04:37:16;;;;;;;23.93;8.53;;;18.70;99.90;;;;;;5016552;28;20033;-38
2021/03/01 04:39:42;;;;;;;18.73;7.65;;;18.70;99.90;;;;;;5016391;28;20026;-38
2021/03/01 04:42:08;;;;;;;19.95;7.88;;;18.70;99.90;;;;;;5016038;28;20042;-38
2021/03/01 04:44:34;;;;;;;18.60;7.10;;;18.70;99.90;;;;;;5016307;28;20084;-38
2021/03/01 04:47:01;;;;;;;17.52;7.65;;;18.70;99.90;;;;;;5016177;28;20457;-38
2021/03/01 04:49:27;;;;;;;17.70;6.80;;;18.70;99.90;;;;;;5016187;28;20030;-39
2021/03/01 04:51:54;;;;;;;18.73;7.20;;;18.70;99.90;;;;;;5015957;28;20499;-38
2021/03/01 04:54:21;;;;;;;17.63;6.45;;;18.80;99.90;;;;;;5015784;28;20038;-37
2021/03/01 04:56:48;;;;;;;15.70;6.97;;;18.80;99.90;;;;;;5016152;28;20096;-38
2021/03/01 04:59:15;;;;;;;15.68;7.35;;;18.80;99.90;;;;;;5016002;28;20112;-38
2021/03/01 05:01:47;;;;;;;16.48;6.55;;;18.80;99.90;;;;;;5015500;28;20052;-38
2021/03/01 05:04:13;;;;;;;15.50;6.47;;;18.80;99.90;;;;;;5016764;28;20025;-30
2021/03/01 05:06:40;;;;;;;20.42;6.85;;;18.80;99.90;;;;;;5016986;28;20030;-30
2021/03/01 05:09:06;;;;;;;17.50;6.43;;;18.80;99.90;;;;;;5017011;28;20030;-30
2021/03/01 05:11:38;;;;;;;15.40;6.72;;;18.80;99.90;;;;;;5016767;28;20125;-30
2021/03/01 05:14:06;;;;;;;17.20;6.10;;;18.80;99.90;;;;;;5016732;28;20796;-30
2021/03/01 05:16:32;;;;;;;18.98;6.57;;;18.80;99.90;;;;;;5016665;28;20038;-30
2021/03/01 05:18:59;;;;;;;14.82;6.60;;;18.90;99.90;;;;;;5016793;28;20022;-30
2021/03/01 05:21:25;;;;;;;19.17;7.10;;;18.90;99.90;;;;;;5016560;28;20030;-29
2021/03/01 05:23:52;;;;;;;18.00;8.15;;;18.90;99.90;;;;;;5016612;28;20028;-30
2021/03/01 05:26:19;;;;;;;17.05;6.75;;;18.90;99.90;;;;;;5016630;28;20022;-30
2021/03/01 05:28:45;;;;;;;16.20;6.38;;;18.90;99.90;;;;;;5016681;28;20022;-30
2021/03/01 05:31:11;;;;;;;15.50;6.18;;;18.90;99.90;;;;;;5016456;28;20026;-30
2021/03/01 05:33:37;;;;;;;17.90;7.15;;;18.90;99.90;;;;;;5016568;28;20427;-30
2021/03/01 05:36:03;;;;;;;18.88;6.63;;;18.90;99.90;;;;;;5016336;28;20027;-30
2021/03/01 05:38:29;;;;;;;13.85;6.15;;;18.90;99.90;;;;;;5016430;28;20156;-30
2021/03/01 05:40:56;;;;;;;15.95;6.22;;;18.90;99.90;;;;;;5013402;28;20105;-30
2021/03/01 05:43:26;;;;;;;17.83;6.45;;;18.90;99.90;;;;;;4997548;28;20440;-30
2021/03/01 05:45:53;;;;;;;15.23;6.30;;;18.90;99.90;;;;;;5011360;28;20085;-31
2021/03/01 05:48:22;;;;;;;11.18;6.40;;;18.90;99.90;;;;;;5012645;28;20117;-39
2021/03/01 05:50:57;;;;;;;11.73;6.07;;;18.90;99.90;;;;;;4995574;28;20058;-38
2021/03/01 05:53:32;;;;;;;18.33;6.78;;;18.90;99.90;;;;;;4995744;28;20385;-38
2021/03/01 05:55:59;;;;;;;16.40;6.05;;;18.80;99.90;;;;;;5013175;28;20033;-37
2021/03/01 05:58:26;;;;;;;18.02;6.18;;;18.90;99.90;;;;;;5014849;28;20534;-38
2021/03/01 06:01:03;;;;;;;15.60;5.75;;;18.90;99.90;;;;;;4997682;28;20381;-38
2021/03/01 06:03:34;;;;;;;14.10;6.35;;;18.90;99.90;;;;;;5013321;28;20053;-37
2021/03/01 06:06:00;;;;;;;19.98;6.40;;;18.80;99.90;;;;;;4997096;28;20030;-37
2021/03/01 06:08:27;;;;;;;15.05;6.28;;;18.90;99.90;;;;;;4995177;28;20037;-37
2021/03/01 06:11:01;;;;;;;17.00;5.38;;;18.80;99.90;;;;;;5010227;28;20040;-37
2021/03/01 06:13:27;;;;;;;11.32;5.90;;;18.80;99.90;;;;;;5014566;28;20113;-37
2021/03/01 06:15:54;;;;;;;19.35;6.93;;;18.80;99.90;;;;;;5012610;28;20553;-39
2021/03/01 06:18:20;;;;;;;14.80;6.43;;;18.90;99.90;;;;;;5014418;28;20443;-38
2021/03/01 06:20:46;;;;;;;16.33;6.05;;;18.80;99.90;;;;;;5000863;28;20037;-38
2021/03/01 06:23:12;;;;;;;13.43;6.65;;;18.80;99.90;;;;;;4994553;28;20030;-38
2021/03/01 06:25:38;;;;;;;14.93;5.82;;;18.80;99.90;;;;;;4996065;28;20038;-38
2021/03/01 06:28:06;;;;;;;13.52;5.63;;;18.80;99.90;;;;;;4994664;28;20023;-37
2021/03/01 06:30:35;;;;;;;16.98;6.28;;;18.80;99.90;;;;;;5006037;28;20105;-38
2021/03/01 06:33:18;;;;;;;14.88;5.78;;;18.80;99.90;;;;;;5014240;28;20022;-38
2021/03/01 06:35:52;;;;;;;14.82;5.90;;;18.80;99.90;;;;;;5012361;28;20030;-38
2021/03/01 06:38:29;;;;;;;15.00;6.18;;;18.80;99.90;;;;;;5014126;28;20432;-38
2021/03/01 06:41:27;;;;;;;13.73;5.35;;;18.80;99.90;;;;;;5000277;28;20038;-38
2021/03/01 06:43:55;;;;;;;14.80;6.50;;;18.80;99.90;;;;;;4972874;28;20509;-38
2021/03/01 06:46:31;;;;;;;13.98;7.00;;;18.80;99.90;;;;;;4972617;28;20046;-38
2021/03/01 06:49:14;;;;;;;14.60;6.45;;;18.70;99.90;;;;;;4972765;28;20154;-39
2021/03/01 06:51:40;;;;;;;17.52;6.68;;;18.70;99.90;;;;;;4971608;28;20034;-38
2021/03/01 06:54:06;;;;;;;15.60;6.13;;;18.70;99.90;;;;;;4969576;28;20034;-39
2021/03/01 06:56:43;;;;;;;12.05;5.35;;;18.70;99.90;;;;;;4972355;28;20062;-38
2021/03/01 06:59:17;;;;;;;16.88;6.47;;;18.70;99.90;;;;;;4972076;28;20038;-39
2021/03/01 07:01:55;;;;;;;11.63;6.68;;;18.70;99.90;;;;;;4971669;28;20059;-38
2021/03/01 07:04:21;;;;;;;;;;;18.70;99.90;;;;;;4970728;28;20038;-39
2021/03/01 07:06:48;;;;;;;12.43;6.45;;;18.70;99.90;;;;;;4965465;28;19922;-39
2021/03/01 07:09:15;;;;;;;18.42;6.40;;;18.70;99.90;;;;;;4972294;28;20106;-31
2021/03/01 07:11:42;;;;;;;12.50;5.75;;;18.70;99.90;;;;;;4973125;28;20150;-31
2021/03/01 07:14:13;;;;;;;12.45;6.28;;;18.60;99.90;;;;;;4973421;28;20130;-31
2021/03/01 07:16:52;;;;;;;13.45;5.97;;;18.60;99.90;;;;;;4973039;28;20027;-31
2021/03/01 07:19:24;;;;;;;15.02;6.60;;;18.60;99.90;;;;;;4982496;28;20038;-31
2021/03/01 07:21:52;;;;;;;13.73;6.32;;;18.60;99.90;;;;;;5009842;28;20757;-32
2021/03/01 07:24:21;;;;;;;19.83;7.00;;;18.60;99.90;;;;;;5001512;28;20058;-31
2021/03/01 07:26:50;;;;;;;20.08;6.65;;;18.70;99.90;;;;;;4994608;28;20023;-31
2021/03/01 07:29:20;;;;;;;16.40;6.47;;;18.70;99.90;;;;;;5006360;28;20030;-31
2021/03/01 07:31:54;;;;;;;15.40;5.78;;;18.70;99.90;;;;;;5014461;28;20080;-31
2021/03/01 07:34:20;;;;;;;14.00;6.43;;;18.70;99.90;;;;;;5002087;28;20096;-30
2021/03/01 07:36:47;;;;;;;11.85;6.40;;;18.70;99.90;;;;;;4994439;28;20028;-31
2021/03/01 07:39:13;;;;;;;16.45;6.18;;;18.70;99.90;;;;;;5004491;28;20057;-31
2021/03/01 07:41:39;;;;;;;18.88;6.65;;;18.70;99.90;;;;;;5013937;28;20030;-30
2021/03/01 07:44:06;;;;;;;15.98;6.32;;;18.70;99.90;;;;;;5005194;28;20037;-31
2021/03/01 07:46:34;;;;;;;17.58;6.70;;;18.70;99.90;;;;;;4994201;28;20045;-32
2021/03/01 07:49:01;;;;;;;14.57;5.78;;;18.70;99.90;;;;;;4995181;28;20037;-30
2021/03/01 07:51:45;;;;;;;19.73;6.63;;;18.70;99.90;;;;;;4994366;28;20026;-30
2021/03/01 07:54:16;;;;;;;16.52;6.30;;;18.80;99.90;;;;;;4995469;28;20033;-31
2021/03/01 07:56:44;;;;;;;13.98;6.03;;;18.80;99.90;;;;;;4994029;28;20472;-30
2021/03/01 07:59:11;;;;;;;;;;;18.80;99.90;;;;;;5002177;28;20361;-30
2021/03/01 08:01:37;;;;;;;19.30;6.07;;;18.90;99.90;;;;;;5013458;28;19925;-30
2021/03/01 08:04:04;;;;;;;14.63;6.47;;;18.90;99.90;;;;;;5006819;28;20480;-31
2021/03/01 08:06:58;;;;;;;13.80;6.32;;;18.90;99.90;;;;;;4993997;28;20061;-30
2021/03/01 08:09:43;;;;;;;16.05;5.93;;;18.90;99.90;;;;;;5002468;28;20029;-30
2021/03/01 08:12:11;;;;;;;11.50;5.90;;;18.90;99.90;;;;;;5013812;28;20057;-30
2021/03/01 08:14:51;;;;;;;;;;;18.90;99.90;;;;;;5004218;28;20037;-30
2021/03/01 08:17:29;;;;;;;15.45;6.97;;;19.00;99.90;;;;;;4993919;28;19980;-34
2021/03/01 08:20:15;;;;;;;20.08;7.65;;;19.10;99.90;;;;;;5002229;28;20089;-33
2021/03/01 08:23:05;;;;;;;17.65;7.47;;;19.10;99.90;;;;;;5002553;28;20066;-33
2021/03/01 08:28:24;;;;;;;21.90;8.02;;;19.00;99.90;;;;;;5002950;28;20170;-31
2021/03/01 08:30:54;;;;;;;14.70;7.28;;;19.10;99.90;;;;;;5002350;28;20023;-32
2021/03/01 08:33:20;;;;;;;16.92;7.38;;;19.10;99.90;;;;;;5001727;28;20030;-32
2021/03/01 08:36:18;;;;;;;17.50;7.67;;;19.10;99.90;;;;;;5003822;28;20022;-32
2021/03/01 08:38:47;;;;;;;17.00;6.78;;;19.20;99.90;;;;;;5000031;28;20026;-32
2021/03/01 08:41:38;;;;;;;17.75;7.82;;;19.20;99.90;;;;;;5003166;28;20033;-31
2021/03/01 08:44:19;;;;;;;25.73;7.35;;;19.20;99.90;;;;;;4998491;28;20069;-32
2021/03/01 08:46:45;;;;;;;14.27;6.28;;;19.30;99.90;;;;;;5003006;28;20022;-32
2021/03/01 08:49:22;;;;;;;17.45;7.80;;;19.30;99.90;;;;;;5000663;28;20448;-33
2021/03/01 08:51:49;;;;;;;16.83;7.65;;;19.30;99.90;;;;;;5002918;28;20034;-32
2021/03/01 08:54:25;;;;;;;14.68;6.78;;;19.40;99.90;;;;;;5004080;28;20068;-31
2021/03/01 08:57:07;;;;;;;15.65;7.15;;;19.40;99.90;;;;;;5003768;28;20092;-33
2021/03/01 08:59:34;;;;;;;16.17;6.47;;;19.40;99.90;;;;;;5004126;28;20025;-30
2021/03/01 09:02:00;;;;;;;20.33;7.88;;;19.50;99.90;;;;;;5004433;28;20042;-31
2021/03/01 09:04:26;;;;;;;12.45;6.75;;;19.50;99.90;;;;;;5002497;28;20022;-32
2021/03/01 09:06:52;;;;;;;16.10;7.70;;;19.50;99.90;;;;;;5010017;28;20472;-35
2021/03/01 09:09:19;;;;;;;18.10;9.95;;;19.60;99.90;;;;;;5012497;28;20026;-35
2021/03/01 09:11:45;;;;;;;17.58;11.00;;;19.70;99.90;;;;;;5009032;28;20028;-35
2021/03/01 09:14:11;;;;;;;22.60;12.98;;;19.70;99.90;;;;;;5005180;28;20061;-36
2021/03/01 09:16:40;;;;;;;26.17;15.55;;;19.70;99.90;;;;;;5008799;28;20057;-36
2021/03/01 09:19:12;;;;;;;23.52;14.00;;;19.70;99.90;;;;;;5005891;28;20056;-35
2021/03/01 09:21:43;;;;;;;24.08;15.68;;;19.70;99.90;;;;;;5016486;28;20034;-36
2021/03/01 09:24:13;;;;;;;26.40;15.80;;;19.70;99.90;;;;;;5011039;28;20476;-36
2021/03/01 09:26:42;;;;;;;29.25;13.90;;;19.70;99.90;;;;;;4999888;28;20038;-37
2021/03/01 09:29:19;;;;;;;25.95;12.52;;;19.80;99.90;;;;;;5006003;28;20033;-32
2021/03/01 09:31:47;;;;;;;17.47;11.37;;;19.80;99.90;;;;;;5015047;28;20026;-32
2021/03/01 09:34:15;;;;;;;38.55;14.95;;;19.90;99.90;;;;;;5013184;28;20056;-32
2021/03/01 09:36:47;;;;;;;46.80;19.08;;;20.00;99.90;;;;;;5016060;28;20026;-32
2021/03/01 09:39:16;;;;;;;29.55;14.80;;;20.00;99.90;;;;;;5005288;28;20117;-32
2021/03/01 09:41:43;;;;;;;47.33;19.33;;;20.00;99.90;;;;;;5004771;28;20033;-32
2021/03/01 09:44:09;;;;;;;71.07;29.50;;;20.00;99.90;;;;;;4996453;28;20503;-31
2021/03/01 09:46:36;;;;;;;53.17;23.92;;;20.00;99.90;;;;;;5009072;28;20022;-32
2021/03/01 09:49:06;;;;;;;75.47;32.78;;;20.00;99.90;;;;;;5008982;28;20054;-31
2021/03/01 09:51:34;;;;;;;27.70;12.25;;;20.00;99.90;;;;;;5007717;28;20033;-33
2021/03/01 09:54:02;;;;;;;43.17;19.23;;;20.00;99.90;;;;;;5008785;28;20030;-31
2021/03/01 09:56:41;;;;;;;113.35;53.45;;;20.10;99.90;;;;;;5008359;28;20033;-32
2021/03/01 09:59:07;;;;;;;54.72;23.58;;;20.00;99.90;;;;;;4996537;28;20030;-31
2021/03/01 10:01:33;;;;;;;63.92;25.13;;;20.10;99.90;;;;;;5005107;28;20061;-32
2021/03/01 10:03:59;;;;;;;42.95;17.83;;;20.10;99.90;;;;;;5006792;28;20436;-32
2021/03/01 10:06:38;;;;;;;41.85;17.13;;;20.10;99.90;;;;;;4995974;28;20022;-32
2021/03/01 10:09:09;;;;;;;40.22;14.73;;;20.10;99.90;;;;;;5016156;28;20404;-33
2021/03/01 10:11:36;;;;;;;30.15;14.65;;;20.20;99.90;;;;;;5014944;28;20023;-33
2021/03/01 10:14:11;;;;;;;32.60;12.32;;;20.20;99.90;;;;;;5007181;28;20026;-31
2021/03/01 10:16:39;;;;;;;28.25;12.93;;;20.20;99.90;;;;;;5015149;28;20475;-33
2021/03/01 10:19:12;;;;;;;24.02;10.60;;;20.30;99.90;;;;;;5015286;28;20036;-33
2021/03/01 10:21:38;;;;;;;33.13;11.57;;;20.30;99.90;;;;;;5015053;28;20076;-32
2021/03/01 10:24:08;;;;;;;23.27;9.45;;;20.40;99.90;;;;;;5003443;28;20493;-32
2021/03/01 10:26:55;;;;;;;62.15;37.00;;;20.40;99.90;;;;;;5003279;28;20046;-34
2021/03/01 10:29:35;;;;;;;64.28;36.33;;;20.40;99.90;;;;;;5002025;28;20022;-35
2021/03/01 10:32:02;;;;;;;34.08;14.48;;;20.40;99.90;;;;;;5006438;28;20544;-36
2021/03/01 10:34:37;;;;;;;22.63;11.93;;;20.50;99.90;;;;;;5007671;28;20061;-34
2021/03/01 10:37:09;;;;;;;19.52;8.02;;;20.50;99.90;;;;;;5006691;28;20389;-34
2021/03/01 10:39:43;;;;;;;25.30;8.60;;;20.50;99.90;;;;;;4999837;28;20049;-35
2021/03/01 10:42:13;;;;;;;28.67;8.10;;;20.50;99.90;;;;;;5005592;28;20022;-35
2021/03/01 10:44:48;;;;;;;23.13;7.75;;;20.50;99.90;;;;;;5004130;28;20027;-35
2021/03/01 10:47:16;;;;;;;296.42;234.40;;;20.50;99.90;;;;;;5010474;28;20111;-35
2021/03/01 10:49:44;;;;;;;135.23;100.68;;;20.50;99.90;;;;;;5005406;28;20110;-34
2021/03/01 10:52:13;;;;;;;37.10;21.02;;;20.50;99.90;;;;;;4996202;28;20050;-35
2021/03/01 10:54:40;;;;;;;40.28;17.70;;;20.60;99.90;;;;;;4994008;28;20097;-35
2021/03/01 10:57:06;;;;;;;32.92;11.95;;;20.60;99.90;;;;;;5005325;28;20027;-34
2021/03/01 10:59:33;;;;;;;28.73;9.65;;;20.60;99.90;;;;;;5009413;28;20034;-34
2021/03/01 11:01:59;;;;;;;23.13;8.27;;;20.60;99.90;;;;;;5002275;28;20121;-31
2021/03/01 11:04:25;;;;;;;20.00;6.53;;;20.70;99.90;;;;;;4999205;28;20736;-31
2021/03/01 11:06:51;;;;;;;25.85;7.60;;;20.60;99.90;;;;;;4993425;28;20033;-30
2021/03/01 11:09:18;;;;;;;93.18;68.47;;;20.70;99.90;;;;;;5004675;28;20099;-31
2021/03/01 11:11:45;;;;;;;177.85;133.77;;;20.70;99.90;;;;;;5004142;28;20041;-32
2021/03/01 11:14:13;;;;;;;128.88;90.68;;;20.80;99.90;;;;;;5007515;28;20026;-32
2021/03/01 11:16:39;;;;;;;64.07;38.53;;;20.80;99.90;;;;;;4994518;28;20038;-30
2021/03/01 11:19:07;;;;;;;56.47;34.67;;;20.90;99.90;;;;;;4994312;28;20037;-32
2021/03/01 11:21:33;;;;;;;34.97;17.80;;;21.00;99.90;;;;;;4998995;28;20029;-31
2021/03/01 11:23:59;;;;;;;34.22;18.08;;;21.00;99.90;;;;;;4993196;28;20030;-31
2021/03/01 11:26:26;;;;;;;43.78;22.48;;;21.00;99.90;;;;;;5006642;28;20380;-31
2021/03/01 11:28:54;;;;;;;34.55;21.30;;;21.10;99.90;;;;;;5013438;28;20049;-32
2021/03/01 11:31:20;;;;;;;50.33;19.67;;;21.20;99.90;;;;;;5013710;28;20041;-30
2021/03/01 11:33:47;;;;;;;50.00;26.00;;;21.20;99.90;;;;;;5010180;28;20266;-32
2021/03/01 11:36:13;;;;;;;25.73;10.65;;;21.20;99.90;;;;;;5009299;28;20025;-32
2021/03/01 11:38:39;;;;;;;39.22;8.15;;;21.10;99.90;;;;;;5001413;28;20395;-32
2021/03/01 11:41:05;;;;;;;35.72;8.55;;;21.10;99.90;;;;;;5022104;28;20022;-32
2021/03/01 11:43:35;;;;;;;44.80;20.85;;;21.00;99.90;;;;;;5009470;28;20018;-31
2021/03/01 11:46:02;;;;;;;39.30;17.60;;;21.10;99.90;;;;;;5008889;28;20026;-31
2021/03/01 11:48:28;;;;;;;27.27;9.40;;;21.10;99.90;;;;;;5009044;28;20029;-31
2021/03/01 11:50:54;;;;;;;35.08;12.95;;;21.10;99.90;;;;;;5008293;28;20045;-31
2021/03/01 11:53:20;;;;;;;28.77;8.20;;;21.10;99.90;;;;;;5007266;28;20025;-31
2021/03/01 11:55:46;;;;;;;37.17;9.75;;;21.20;99.90;;;;;;4999127;28;20041;-31
2021/03/01 11:58:13;;;;;;;32.50;7.53;;;21.20;99.90;;;;;;4995890;28;20469;-31
2021/03/01 12:00:41;;;;;;;36.58;8.50;;;21.20;99.90;;;;;;5006049;28;20034;-31
2021/03/01 12:03:09;;;;;;;36.17;7.43;;;21.20;99.90;;;;;;5005885;28;20046;-31
2021/03/01 12:05:37;;;;;;;40.25;8.90;;;21.20;99.90;;;;;;5013448;28;20034;-31
2021/03/01 12:08:03;;;;;;;48.47;9.27;;;21.20;99.90;;;;;;5013323;28;20039;-31
2021/03/01 12:10:31;;;;;;;36.03;9.35;;;21.20;99.90;;;;;;5013497;28;20076;-31
2021/03/01 12:12:57;;;;;;;48.20;12.63;;;21.20;99.90;;;;;;5013413;28;20436;-31
2021/03/01 12:15:23;;;;;;;53.35;11.75;;;21.30;99.90;;;;;;5013310;28;20029;-31
2021/03/01 12:17:49;;;;;;;66.70;13.20;;;21.30;99.90;;;;;;5013256;28;20502;-31
2021/03/01 12:20:15;;;;;;;44.60;10.93;;;21.30;99.90;;;;;;5013122;28;20113;-30
2021/03/01 12:22:41;;;;;;;52.53;13.23;;;21.20;99.90;;;;;;5013213;28;20092;-30
2021/03/01 12:25:07;;;;;;;50.53;10.23;;;21.20;99.90;;;;;;5013161;28;20460;-30
2021/03/01 12:27:33;;;;;;;40.47;7.85;;;21.20;99.90;;;;;;5013283;28;20372;-30
2021/03/01 12:29:59;;;;;;;39.97;8.68;;;21.20;99.90;;;;;;5013190;28;20030;-30
2021/03/01 12:32:25;;;;;;;34.17;8.95;;;21.30;99.90;;;;;;5012875;28;20430;-31
2021/03/01 12:34:51;;;;;;;49.95;8.00;;;21.30;99.90;;;;;;5012822;28;20030;-30
2021/03/01 12:37:17;;;;;;;49.60;10.15;;;21.30;99.90;;;;;;5012949;28;20034;-30
2021/03/01 12:39:43;;;;;;;48.88;12.20;;;21.40;99.90;;;;;;5012677;28;20030;-32
2021/03/01 12:42:10;;;;;;;48.38;12.57;;;21.40;99.90;;;;;;5011411;28;20096;-31
2021/03/01 12:44:36;;;;;;;49.45;10.77;;;21.40;99.90;;;;;;5012923;28;20030;-31